Charter Quote
Worldwide +1-877-727-2538 Call
Select Language Lang
SAFETY RELIABILITY EXPERIENCE

Private Jet Charter Services - Zhanjiang Airport (ZGZJ)

Paramount Business Jets offers private jet charter flights and luxury airliner charters to and from Zhanjiang Airport.

AIRPORT INFORMATION
ICAOZGZJ
IATAZHA
LOCATIONZhanjiang, China
FACILITY TYPEAIRPORT

At Paramount Business Jets you can hire chartered private jets to and from Zhanjiang Airport with as little as 4 hours of notice. All flights booked via Paramount Business Jets are operated by certified direct air carriers that meet and exceed the FAA part 135 and 121 protocol or a foreign equivalent safety authority. Furthermore, Paramount Business Jets subscribes to ARGUS for their third party safety checks of operators, aircraft, and crews prior each and every flight to and from Zhanjiang Airport and worldwide.

  • Quote a trip using Zhanjiang Airport or call us 24/7 - 365 days a year at +1-877-727-2538.
Questions? Call +1-877-727-2538

METAR Weather Data at Zhanjiang Airport, ZGZJ, ZHA

STATIONZGZJ
OBSERVEDFri Jul 20, 13:00 UTC
NOWMon Oct 21, 19:53 UTC
AGE10998:53 hr ago
WINDvaries at 2 mph
VISIBILITY16 miles
CLOUDSpartly cloudy
TEMP81°F (27°C)
DEWPT79°F (26°C)
HUMIDITY94%
HEAT INDEX89°F (32°C)
BAROMETER1004 hPa (29.65 in Hg)
METARZGZJ 201300Z VRB01MPS 9999 FEW012 27/26 Q1004 NOSIG

Call us on +1-877-727-2538 (24 Hours) to Hire a Private Jet or Get a Quick Quote.

Find Airports Near any Location

Processing
...